createdAt,value
2022-09-25T00:00:32.618Z,82.05
2022-09-25T00:02:54.161Z,81.25
2022-09-25T00:05:15.763Z,81.09
2022-09-25T00:07:37.209Z,80.50
2022-09-25T00:09:58.649Z,80.33
2022-09-25T00:12:20.077Z,80.08
2022-09-25T00:14:41.516Z,79.79
2022-09-25T00:17:03.061Z,79.62
2022-09-25T00:19:43.104Z,79.17
2022-09-25T00:22:04.520Z,79.09
2022-09-25T00:24:26.213Z,79.39
2022-09-25T00:26:47.637Z,79.43
2022-09-25T00:29:14.273Z,81.12
2022-09-25T00:31:35.705Z,81.73
2022-09-25T00:33:59.189Z,81.04
2022-09-25T00:36:20.646Z,81.11
2022-09-25T00:38:43.404Z,81.69
2022-09-25T00:41:07.540Z,82.91
2022-09-25T00:43:46.718Z,82.70
2022-09-25T00:46:13.764Z,81.95
2022-09-25T00:48:36.086Z,81.65
2022-09-25T00:50:59.123Z,82.56
2022-09-25T00:53:26.372Z,83.12
2022-09-25T00:55:48.662Z,82.33
2022-09-25T00:58:11.872Z,84.28
2022-09-25T01:00:33.468Z,83.43
2022-09-25T01:02:56.642Z,82.60
2022-09-25T01:05:21.562Z,81.94
2022-09-25T01:07:46.378Z,83.16
2022-09-25T01:10:09.532Z,83.41
2022-09-25T01:12:31.092Z,84.40
2022-09-25T01:14:52.671Z,83.86
2022-09-25T01:17:27.132Z,83.00
2022-09-25T01:20:14.591Z,84.30
2022-09-25T01:23:02.393Z,84.96
2022-09-25T01:25:44.986Z,83.28
2022-09-25T01:28:24.317Z,83.21
2022-09-25T01:30:54.459Z,83.02
2022-09-25T01:33:35.478Z,82.82
2022-09-25T01:36:02.957Z,82.63
2022-09-25T01:38:35.692Z,84.07
2022-09-25T01:41:19.995Z,86.59
2022-09-25T01:43:58.614Z,85.75
2022-09-25T01:46:24.238Z,85.15
2022-09-25T01:48:49.949Z,86.90
2022-09-25T01:51:24.644Z,86.87
2022-09-25T01:53:51.194Z,86.47
2022-09-25T01:56:22.199Z,85.84
2022-09-25T01:58:51.479Z,85.45
2022-09-25T02:01:23.456Z,84.70
2022-09-25T02:03:56.303Z,84.93
2022-09-25T02:06:20.896Z,84.74
2022-09-25T02:08:49.244Z,85.75
2022-09-25T02:11:11.110Z,86.03
2022-09-25T02:13:52.371Z,84.71
2022-09-25T02:16:19.652Z,85.80
2022-09-25T02:19:00.047Z,87.45
2022-09-25T02:21:43.791Z,85.41
2022-09-25T02:24:17.297Z,87.68
2022-09-25T02:26:38.809Z,86.17
2022-09-25T02:29:01.091Z,87.14
2022-09-25T02:31:31.089Z,86.34
2022-09-25T02:33:52.632Z,85.88
2022-09-25T02:36:23.874Z,86.98
2022-09-25T02:38:46.273Z,87.80
2022-09-25T02:41:21.915Z,88.25
2022-09-25T02:43:52.805Z,87.70
2022-09-25T02:46:34.074Z,88.48
2022-09-25T02:49:40.606Z,87.80
2022-09-25T02:52:09.617Z,86.85
2022-09-25T02:54:38.699Z,86.07
2022-09-25T02:57:12.155Z,85.81
2022-09-25T02:59:40.255Z,85.82
2022-09-25T03:02:02.637Z,85.52
2022-09-25T03:04:26.720Z,84.98
2022-09-25T03:06:48.199Z,85.09
2022-09-25T03:09:11.801Z,85.00
2022-09-25T03:11:43.230Z,84.28
2022-09-25T03:14:05.874Z,84.84
2022-09-25T03:16:40.714Z,84.40
2022-09-25T03:19:03.124Z,84.75
2022-09-25T03:21:24.553Z,84.44
2022-09-25T03:23:46.006Z,86.33
2022-09-25T03:26:07.773Z,85.98
2022-09-25T03:28:29.347Z,85.06
2022-09-25T03:30:58.498Z,84.60
2022-09-25T03:33:20.042Z,85.26
2022-09-25T03:35:41.479Z,85.52
2022-09-25T03:38:03.449Z,85.07
2022-09-25T03:40:25.019Z,86.18
2022-09-25T03:42:47.377Z,85.19
2022-09-25T03:45:10.028Z,84.58
2022-09-25T03:47:31.456Z,84.25
2022-09-25T03:49:52.901Z,84.32
2022-09-25T03:52:14.560Z,85.37
2022-09-25T03:54:35.991Z,85.10
2022-09-25T03:56:57.880Z,84.77
2022-09-25T03:59:19.307Z,85.30
2022-09-25T04:01:41.219Z,87.00
2022-09-25T04:04:03.379Z,86.19
2022-09-25T04:06:26.373Z,86.11
2022-09-25T04:08:48.738Z,86.56
2022-09-25T04:11:11.152Z,86.30
2022-09-25T04:13:36.455Z,85.96
2022-09-25T04:16:00.127Z,85.62
2022-09-25T04:18:22.244Z,85.98
2022-09-25T04:20:43.707Z,85.28
2022-09-25T04:23:05.420Z,85.67
2022-09-25T04:25:27.105Z,85.98
2022-09-25T04:27:49.823Z,86.64
2022-09-25T04:30:11.622Z,87.62
2022-09-25T04:32:51.654Z,87.09
2022-09-25T04:35:13.119Z,86.86
2022-09-25T04:37:34.525Z,87.18
2022-09-25T04:39:57.227Z,86.92
2022-09-25T04:42:20.986Z,86.65
2022-09-25T04:44:42.543Z,86.59
2022-09-25T04:47:04.379Z,87.81
2022-09-25T04:49:25.852Z,87.68
2022-09-25T04:51:47.260Z,87.31
2022-09-25T04:54:08.722Z,87.57
2022-09-25T04:56:30.134Z,87.57
2022-09-25T04:58:51.787Z,88.57
2022-09-25T05:01:13.433Z,87.48
2022-09-25T05:03:35.360Z,87.28
2022-09-25T05:05:56.861Z,87.05
2022-09-25T05:08:18.305Z,86.71
2022-09-25T05:10:40.216Z,86.77
2022-09-25T05:13:04.056Z,86.29
2022-09-25T05:15:26.669Z,88.65
2022-09-25T05:17:48.102Z,88.56
2022-09-25T05:20:09.753Z,88.47
2022-09-25T05:22:31.205Z,88.72
2022-09-25T05:24:58.620Z,87.94
2022-09-25T05:27:21.939Z,87.58
2022-09-25T05:29:43.414Z,87.47
2022-09-25T05:32:04.881Z,87.52
2022-09-25T05:34:26.938Z,88.04
2022-09-25T05:36:48.399Z,87.62
2022-09-25T05:39:14.644Z,87.53
2022-09-25T05:41:36.745Z,88.07
2022-09-25T05:43:58.909Z,89.34
2022-09-25T05:46:20.477Z,89.31
2022-09-25T05:48:42.044Z,89.72
2022-09-25T05:51:03.920Z,89.50
2022-09-25T05:53:26.868Z,89.81
2022-09-25T05:55:52.862Z,90.43
2022-09-25T05:58:14.836Z,90.90
2022-09-25T06:00:36.392Z,89.80
2022-09-25T06:02:58.261Z,89.44
2022-09-25T06:05:19.842Z,89.68
2022-09-25T06:07:41.261Z,90.96
2022-09-25T06:10:03.011Z,92.81
2022-09-25T06:12:24.840Z,93.68
2022-09-25T06:14:46.651Z,92.73
2022-09-25T06:17:08.280Z,93.57
2022-09-25T06:19:30.179Z,92.09
2022-09-25T06:21:51.599Z,91.60
2022-09-25T06:24:13.740Z,92.82
2022-09-25T06:26:35.369Z,93.94
2022-09-25T06:29:02.306Z,95.18
2022-09-25T06:31:24.589Z,94.84
2022-09-25T06:33:50.490Z,95.75
2022-09-25T06:36:11.916Z,94.39
2022-09-25T06:38:34.431Z,95.31
2022-09-25T06:40:59.572Z,96.74
2022-09-25T06:43:21.475Z,97.32
2022-09-25T06:45:43.299Z,97.29
2022-09-25T06:48:08.709Z,97.42
2022-09-25T06:50:38.081Z,97.15
2022-09-25T06:53:02.819Z,97.53
2022-09-25T06:55:24.299Z,97.92
2022-09-25T06:57:46.438Z,97.85
2022-09-25T07:00:08.622Z,99.06
2022-09-25T07:02:48.543Z,98.99
2022-09-25T07:05:10.168Z,99.53
2022-09-25T07:07:31.673Z,98.82
2022-09-25T07:09:53.141Z,97.81
2022-09-25T07:12:15.719Z,98.07
2022-09-25T07:14:38.581Z,98.88
2022-09-25T07:16:59.983Z,99.30
2022-09-25T07:19:24.546Z,100.00
2022-09-25T07:21:49.269Z,100.00
2022-09-25T07:24:10.901Z,99.84
2022-09-25T07:26:34.501Z,100.00
2022-09-25T07:28:58.527Z,99.37
2022-09-25T07:31:26.092Z,98.84
2022-09-25T07:33:48.148Z,97.98
2022-09-25T07:36:09.716Z,97.10
2022-09-25T07:38:31.190Z,97.05
2022-09-25T07:40:53.397Z,95.37
2022-09-25T07:43:14.880Z,93.97
2022-09-25T07:45:37.119Z,92.17
2022-09-25T07:48:00.817Z,91.37
2022-09-25T07:50:22.338Z,89.74
2022-09-25T07:52:43.861Z,89.51
2022-09-25T07:55:06.399Z,88.25
2022-09-25T07:57:28.186Z,88.51
2022-09-25T07:59:49.619Z,87.70
2022-09-25T08:02:12.319Z,86.70
2022-09-25T08:04:33.803Z,85.94
2022-09-25T08:06:55.216Z,85.03
2022-09-25T08:09:16.662Z,84.39
2022-09-25T08:11:38.421Z,82.75
2022-09-25T08:13:59.871Z,84.08
2022-09-25T08:16:23.258Z,82.63
2022-09-25T08:18:46.940Z,82.27
2022-09-25T08:21:10.293Z,82.80
2022-09-25T08:23:32.340Z,80.30
2022-09-25T08:25:53.755Z,78.79
2022-09-25T08:28:16.130Z,79.13
2022-09-25T08:30:38.235Z,79.29
2022-09-25T08:33:00.142Z,78.06
2022-09-25T08:35:21.985Z,78.75
2022-09-25T08:37:44.981Z,74.00
2022-09-25T08:40:06.886Z,75.25
2022-09-25T08:42:34.990Z,75.00
2022-09-25T08:45:22.134Z,73.38
2022-09-25T08:48:02.815Z,73.27
2022-09-25T08:50:25.930Z,72.79
2022-09-25T08:53:05.788Z,75.32
2022-09-25T08:55:50.413Z,76.45
2022-09-25T08:58:15.864Z,77.96
2022-09-25T09:00:37.765Z,77.24
2022-09-25T09:02:59.697Z,76.93
2022-09-25T09:05:36.496Z,77.73
2022-09-25T09:08:06.096Z,77.54
2022-09-25T09:10:48.777Z,78.90
2022-09-25T09:13:23.977Z,79.40
2022-09-25T09:15:54.504Z,79.03
2022-09-25T09:18:27.838Z,80.62
2022-09-25T09:20:56.238Z,80.15
2022-09-25T09:23:21.393Z,81.65
2022-09-25T09:25:57.222Z,82.04
2022-09-25T09:28:54.573Z,79.77
2022-09-25T09:31:34.531Z,79.64
2022-09-25T09:34:40.910Z,80.11
2022-09-25T09:37:31.760Z,80.26
2022-09-25T09:40:12.511Z,79.69
2022-09-25T09:42:45.948Z,80.03
2022-09-25T09:45:19.945Z,78.41
2022-09-25T09:48:18.756Z,78.44
2022-09-25T09:50:51.423Z,76.27
2022-09-25T09:53:36.445Z,78.18
2022-09-25T09:56:06.417Z,77.99
2022-09-25T09:58:44.981Z,78.24
2022-09-25T10:01:28.978Z,78.30
2022-09-25T10:03:54.209Z,77.21
2022-09-25T10:06:21.915Z,76.31
2022-09-25T10:08:44.127Z,75.41
2022-09-25T10:11:14.020Z,74.25
2022-09-25T10:13:39.900Z,73.53
2022-09-25T10:16:17.999Z,75.02
2022-09-25T10:18:46.597Z,72.32
2022-09-25T10:21:18.311Z,72.42
2022-09-25T10:23:46.684Z,72.24
2022-09-25T10:26:28.929Z,72.52
2022-09-25T10:28:50.894Z,72.40
2022-09-25T10:31:12.979Z,72.53
2022-09-25T10:33:34.509Z,71.59
2022-09-25T10:35:56.525Z,73.46
2022-09-25T10:38:42.172Z,72.94
2022-09-25T10:41:13.965Z,74.42
2022-09-25T10:43:35.922Z,72.39
2022-09-25T10:46:15.488Z,73.93
2022-09-25T10:48:56.937Z,74.87
2022-09-25T10:51:19.973Z,75.10
2022-09-25T10:53:41.532Z,74.63
2022-09-25T10:56:11.206Z,72.68
2022-09-25T10:58:38.316Z,72.66
2022-09-25T11:01:01.863Z,71.53
2022-09-25T11:03:30.279Z,73.27
2022-09-25T11:06:10.037Z,70.72
2022-09-25T11:08:37.934Z,72.38
2022-09-25T11:11:01.353Z,70.80
2022-09-25T11:13:29.145Z,69.89
2022-09-25T11:15:54.373Z,69.10
2022-09-25T11:18:36.207Z,67.71
2022-09-25T11:21:03.195Z,67.57
2022-09-25T11:23:49.442Z,67.91
2022-09-25T11:26:22.029Z,67.56
2022-09-25T11:29:04.580Z,66.97
2022-09-25T11:31:35.705Z,65.37
2022-09-25T11:34:24.051Z,65.93
2022-09-25T11:36:59.236Z,64.74
2022-09-25T11:39:53.737Z,66.64
2022-09-25T11:42:26.625Z,66.64
2022-09-25T11:44:59.545Z,68.26
2022-09-25T11:47:49.472Z,69.04
2022-09-25T11:50:16.002Z,69.81
2022-09-25T11:53:01.842Z,70.05
2022-09-25T11:55:46.685Z,71.17
2022-09-25T11:58:37.507Z,71.73
2022-09-25T12:01:26.728Z,73.08
2022-09-25T12:03:59.733Z,73.65
2022-09-25T12:07:02.941Z,75.88
2022-09-25T12:09:41.022Z,77.98
2022-09-25T12:12:16.067Z,78.91
2022-09-25T12:14:46.646Z,79.02
2022-09-25T12:17:20.258Z,79.57
2022-09-25T12:19:51.397Z,79.20
2022-09-25T12:22:48.702Z,79.55
2022-09-25T12:25:18.540Z,81.65
2022-09-25T12:28:14.044Z,84.00
2022-09-25T12:31:02.264Z,85.32
2022-09-25T12:33:52.511Z,85.00
2022-09-25T12:36:41.263Z,86.52
2022-09-25T12:39:27.447Z,88.52
2022-09-25T12:42:20.445Z,90.03
2022-09-25T12:44:54.913Z,90.13
2022-09-25T12:47:34.135Z,89.31
2022-09-25T12:50:01.495Z,89.73
2022-09-25T12:52:29.744Z,89.12
2022-09-25T12:55:13.839Z,89.54
2022-09-25T12:57:40.653Z,88.71
2022-09-25T13:00:17.819Z,88.56
2022-09-25T13:02:51.346Z,88.00
2022-09-25T13:05:56.330Z,87.16
2022-09-25T13:08:20.627Z,85.17
2022-09-25T13:11:13.462Z,86.36
2022-09-25T13:13:45.332Z,85.86
2022-09-25T13:16:06.900Z,85.46
2022-09-25T13:18:30.425Z,85.02
2022-09-25T13:20:56.737Z,84.69
2022-09-25T13:23:28.850Z,84.54
2022-09-25T13:26:01.225Z,86.28
2022-09-25T13:28:26.497Z,86.39
2022-09-25T13:31:10.619Z,87.06
2022-09-25T13:33:44.852Z,87.22
2022-09-25T13:36:08.997Z,86.26
2022-09-25T13:38:49.189Z,85.90
2022-09-25T13:41:14.702Z,85.61
2022-09-25T13:43:38.443Z,85.66
2022-09-25T13:46:21.632Z,84.57
2022-09-25T13:48:44.029Z,85.48
2022-09-25T13:51:18.114Z,83.78
2022-09-25T13:54:03.661Z,82.66
2022-09-25T13:56:27.326Z,84.61
2022-09-25T13:59:19.385Z,83.73
2022-09-25T14:01:46.394Z,83.06
2022-09-25T14:04:10.902Z,82.99
2022-09-25T14:06:36.813Z,81.36
2022-09-25T14:09:09.921Z,81.45
2022-09-25T14:11:35.199Z,79.88
2022-09-25T14:13:59.129Z,77.61
2022-09-25T14:16:34.471Z,77.21
2022-09-25T14:19:01.520Z,77.85
2022-09-25T14:21:23.576Z,76.69
2022-09-25T14:23:53.537Z,77.02
2022-09-25T14:26:24.850Z,75.44
2022-09-25T14:28:48.060Z,74.15
2022-09-25T14:31:31.845Z,73.77
2022-09-25T14:34:15.286Z,74.04
2022-09-25T14:36:59.005Z,73.67
2022-09-25T14:39:44.682Z,74.21
2022-09-25T14:42:32.120Z,75.13
2022-09-25T14:45:20.137Z,71.87
2022-09-25T14:47:45.141Z,72.24
2022-09-25T14:50:07.078Z,72.90
2022-09-25T14:52:33.023Z,74.14
2022-09-25T14:54:57.106Z,74.43
2022-09-25T14:57:25.654Z,74.00
2022-09-25T14:59:51.437Z,75.07
2022-09-25T15:02:18.628Z,75.73
2022-09-25T15:04:40.113Z,75.64
2022-09-25T15:07:03.369Z,75.07
2022-09-25T15:09:30.956Z,76.04
2022-09-25T15:11:54.876Z,74.97
2022-09-25T15:14:19.867Z,76.77
2022-09-25T15:17:01.563Z,76.50
2022-09-25T15:19:30.337Z,76.11
2022-09-25T15:21:52.387Z,75.72
2022-09-25T15:24:17.925Z,76.86
2022-09-25T15:26:50.036Z,77.33
2022-09-25T15:29:21.230Z,76.63
2022-09-25T15:31:42.782Z,76.36
2022-09-25T15:34:11.635Z,77.67
2022-09-25T15:36:33.085Z,78.46
2022-09-25T15:39:02.997Z,78.54
2022-09-25T15:41:24.477Z,78.33
2022-09-25T15:43:45.923Z,78.79
2022-09-25T15:46:07.303Z,80.67
2022-09-25T15:48:33.342Z,80.24
2022-09-25T15:50:56.077Z,79.98
2022-09-25T15:53:22.028Z,79.35
2022-09-25T15:55:43.456Z,80.01
2022-09-25T15:58:12.225Z,79.62
2022-09-25T16:00:52.368Z,79.81
2022-09-25T16:03:32.276Z,80.90
2022-09-25T16:05:56.147Z,80.33
2022-09-25T16:08:36.315Z,79.50
2022-09-25T16:11:18.688Z,79.88
2022-09-25T16:13:43.698Z,81.33
2022-09-25T16:16:17.736Z,81.08
2022-09-25T16:18:40.449Z,82.04
2022-09-25T16:21:33.886Z,82.89
2022-09-25T16:24:01.321Z,83.72
2022-09-25T16:26:25.517Z,83.93
2022-09-25T16:28:54.682Z,83.68
2022-09-25T16:31:21.998Z,83.36
2022-09-25T16:33:50.632Z,83.48
2022-09-25T16:36:18.681Z,84.30
2022-09-25T16:38:40.328Z,84.75
2022-09-25T16:41:04.474Z,85.18
2022-09-25T16:43:26.330Z,86.22
2022-09-25T16:46:00.324Z,85.97
2022-09-25T16:48:34.735Z,86.94
2022-09-25T16:50:59.947Z,88.35
2022-09-25T16:53:24.842Z,88.91
2022-09-25T16:55:49.000Z,88.40
2022-09-25T16:58:11.009Z,89.37
2022-09-25T17:00:32.405Z,88.80
2022-09-25T17:02:54.681Z,88.29
2022-09-25T17:05:29.456Z,88.21
2022-09-25T17:07:53.624Z,88.29
2022-09-25T17:10:17.901Z,87.75
2022-09-25T17:12:39.476Z,87.78
2022-09-25T17:15:01.002Z,88.47
2022-09-25T17:17:22.449Z,88.70
2022-09-25T17:19:44.074Z,88.63
2022-09-25T17:22:05.535Z,87.59
2022-09-25T17:24:27.529Z,87.11
2022-09-25T17:26:50.418Z,87.63
2022-09-25T17:29:12.223Z,88.21
2022-09-25T17:31:36.104Z,88.96
2022-09-25T17:33:57.571Z,88.49
2022-09-25T17:36:19.237Z,88.90
2022-09-25T17:38:41.400Z,88.98
2022-09-25T17:41:06.227Z,88.44
2022-09-25T17:43:27.889Z,89.05
2022-09-25T17:45:57.783Z,89.55
2022-09-25T17:48:24.633Z,89.21
2022-09-25T17:50:46.113Z,90.09
2022-09-25T17:53:20.017Z,90.51
2022-09-25T17:55:41.577Z,90.80
2022-09-25T17:58:03.002Z,89.25
2022-09-25T18:00:25.418Z,88.53
2022-09-25T18:02:46.968Z,87.74
2022-09-25T18:05:15.204Z,87.03
2022-09-25T18:07:36.691Z,86.68
2022-09-25T18:09:58.447Z,87.67
2022-09-25T18:12:20.099Z,87.94
2022-09-25T18:14:43.068Z,87.36
2022-09-25T18:17:04.733Z,87.30
2022-09-25T18:19:44.708Z,87.86
2022-09-25T18:22:19.171Z,89.23
2022-09-25T18:24:40.950Z,88.15
2022-09-25T18:27:02.948Z,87.36
2022-09-25T18:29:25.421Z,87.94
2022-09-25T18:31:48.097Z,87.08
2022-09-25T18:34:09.617Z,86.85
2022-09-25T18:36:31.583Z,86.40
2022-09-25T18:38:53.012Z,85.93
2022-09-25T18:41:17.376Z,85.77
2022-09-25T18:43:38.877Z,85.59
2022-09-25T18:46:01.224Z,85.67
2022-09-25T18:48:22.997Z,85.47
2022-09-25T18:50:50.810Z,85.44
2022-09-25T18:53:12.649Z,85.25
2022-09-25T18:55:34.240Z,85.23
2022-09-25T18:57:55.659Z,85.05
2022-09-25T19:00:18.235Z,85.03
2022-09-25T19:02:40.975Z,84.78
2022-09-25T19:05:02.506Z,85.14
2022-09-25T19:07:26.120Z,85.27
2022-09-25T19:09:47.709Z,84.99
2022-09-25T19:12:15.239Z,85.11
2022-09-25T19:14:36.686Z,84.96
2022-09-25T19:16:58.377Z,84.84
2022-09-25T19:19:19.854Z,84.74
2022-09-25T19:21:44.909Z,84.70
2022-09-25T19:24:06.449Z,84.87
2022-09-25T19:26:28.021Z,85.46
2022-09-25T19:28:49.481Z,85.45
2022-09-25T19:31:20.008Z,85.08
2022-09-25T19:33:41.634Z,85.53
2022-09-25T19:36:13.869Z,85.16
2022-09-25T19:38:37.066Z,85.16
2022-09-25T19:40:58.946Z,85.02
2022-09-25T19:43:20.481Z,84.82
2022-09-25T19:45:49.094Z,84.66
2022-09-25T19:48:10.553Z,84.70
2022-09-25T19:50:32.015Z,84.76
2022-09-25T19:52:54.776Z,84.50
2022-09-25T19:55:16.242Z,84.34
2022-09-25T19:57:37.798Z,84.32
2022-09-25T20:00:00.466Z,84.44
2022-09-25T20:02:21.961Z,84.62
2022-09-25T20:04:44.119Z,84.51
2022-09-25T20:07:05.569Z,84.49
2022-09-25T20:09:27.300Z,84.38
2022-09-25T20:11:48.757Z,84.61
2022-09-25T20:14:10.274Z,84.70
2022-09-25T20:16:32.460Z,84.86
2022-09-25T20:18:57.746Z,84.83
2022-09-25T20:21:21.420Z,84.66
2022-09-25T20:23:43.177Z,84.38
2022-09-25T20:26:14.283Z,85.13
2022-09-25T20:28:37.829Z,85.47
2022-09-25T20:31:03.501Z,85.18
2022-09-25T20:33:24.975Z,85.49
2022-09-25T20:35:46.410Z,85.51
2022-09-25T20:38:10.922Z,85.32
2022-09-25T20:40:32.523Z,85.41
2022-09-25T20:42:53.977Z,85.20
2022-09-25T20:45:15.576Z,85.25
2022-09-25T20:47:45.136Z,85.36
2022-09-25T20:50:07.836Z,85.97
2022-09-25T20:52:32.056Z,85.74
2022-09-25T20:54:53.729Z,85.52
2022-09-25T20:57:15.203Z,85.71
2022-09-25T20:59:37.403Z,86.01
2022-09-25T21:01:59.168Z,86.15
2022-09-25T21:04:20.696Z,88.61
2022-09-25T21:06:42.097Z,88.18
2022-09-25T21:09:07.548Z,87.03
2022-09-25T21:11:31.230Z,86.58
2022-09-25T21:13:54.588Z,86.24
2022-09-25T21:16:16.190Z,85.81
2022-09-25T21:18:40.582Z,85.48
2022-09-25T21:21:09.392Z,85.10
2022-09-25T21:23:31.153Z,84.77
2022-09-25T21:25:52.585Z,84.66
2022-09-25T21:28:14.021Z,84.69
2022-09-25T21:30:35.460Z,84.85
2022-09-25T21:32:56.926Z,84.70
2022-09-25T21:35:18.376Z,84.61
2022-09-25T21:37:39.809Z,84.44
2022-09-25T21:40:01.407Z,84.57
2022-09-25T21:42:22.854Z,84.36
2022-09-25T21:44:44.252Z,85.33
2022-09-25T21:47:05.650Z,85.51
2022-09-25T21:49:27.149Z,85.28
2022-09-25T21:51:49.776Z,84.85
2022-09-25T21:54:13.033Z,84.64
2022-09-25T21:56:34.764Z,84.22
2022-09-25T21:58:57.566Z,84.13
2022-09-25T22:01:27.176Z,83.78
2022-09-25T22:03:50.854Z,84.00
2022-09-25T22:06:17.631Z,83.76
2022-09-25T22:08:42.973Z,84.50
2022-09-25T22:11:05.627Z,85.37
2022-09-25T22:13:30.340Z,85.20
2022-09-25T22:16:02.272Z,84.75
2022-09-25T22:18:23.731Z,85.83
2022-09-25T22:20:45.142Z,85.56
2022-09-25T22:23:06.581Z,85.47
2022-09-25T22:25:28.014Z,86.07
2022-09-25T22:27:49.443Z,85.13
2022-09-25T22:30:11.327Z,85.85
2022-09-25T22:32:32.749Z,85.32
2022-09-25T22:34:54.224Z,85.42
2022-09-25T22:37:15.878Z,85.63
2022-09-25T22:39:37.290Z,85.50
2022-09-25T22:41:58.926Z,86.82
2022-09-25T22:44:20.973Z,86.33
2022-09-25T22:46:42.396Z,85.87
2022-09-25T22:49:03.905Z,85.64
2022-09-25T22:51:26.197Z,85.37
2022-09-25T22:53:49.558Z,85.55
2022-09-25T22:56:15.528Z,85.19
2022-09-25T22:58:36.999Z,86.27
2022-09-25T23:01:01.253Z,86.36
2022-09-25T23:03:24.746Z,86.11
2022-09-25T23:05:46.489Z,86.13
2022-09-25T23:08:08.813Z,86.12
2022-09-25T23:10:43.129Z,87.03
2022-09-25T23:13:11.742Z,86.97
2022-09-25T23:15:33.211Z,87.88
2022-09-25T23:17:54.642Z,86.91
2022-09-25T23:20:16.114Z,86.91
2022-09-25T23:22:37.559Z,86.78
2022-09-25T23:24:58.976Z,86.52
2022-09-25T23:27:20.401Z,87.10
2022-09-25T23:29:41.821Z,86.70
2022-09-25T23:32:04.765Z,87.84
2022-09-25T23:34:26.262Z,86.84
2022-09-25T23:36:47.733Z,86.48
2022-09-25T23:39:10.601Z,87.11
2022-09-25T23:41:38.406Z,87.00
2022-09-25T23:44:01.375Z,86.80
2022-09-25T23:46:25.558Z,87.33
2022-09-25T23:48:47.965Z,87.13
2022-09-25T23:51:09.910Z,86.47
2022-09-25T23:53:31.377Z,85.73
2022-09-25T23:55:52.933Z,85.73
2022-09-25T23:58:14.361Z,85.68
